createdAt,value
2022-10-20T00:02:37.751Z,15.80
2022-10-20T00:05:29.361Z,15.80
2022-10-20T00:08:21.008Z,15.90
2022-10-20T00:13:55.049Z,15.90
2022-10-20T00:16:47.519Z,15.90
2022-10-20T00:22:18.145Z,15.80
2022-10-20T00:27:48.952Z,15.80
2022-10-20T00:30:41.109Z,15.90
2022-10-20T00:36:17.033Z,15.90
2022-10-20T00:41:47.557Z,15.90
2022-10-20T00:47:50.588Z,15.90
2022-10-20T00:50:44.978Z,15.80
2022-10-20T00:56:15.706Z,15.70
2022-10-20T00:59:07.623Z,15.80
2022-10-20T01:02:00.771Z,15.70
2022-10-20T01:07:37.392Z,15.80
2022-10-20T01:10:32.104Z,15.80
2022-10-20T01:13:26.884Z,15.80
2022-10-20T01:16:22.131Z,15.90
2022-10-20T01:22:06.564Z,15.90
2022-10-20T01:25:08.306Z,15.90
2022-10-20T01:30:43.756Z,15.90
2022-10-20T01:36:18.273Z,15.90
2022-10-20T01:41:52.105Z,15.80
2022-10-20T01:47:25.892Z,15.80
2022-10-20T01:50:18.707Z,15.80
2022-10-20T01:53:10.862Z,15.70
2022-10-20T01:56:04.893Z,15.70
2022-10-20T01:59:21.019Z,15.70
2022-10-20T02:02:39.371Z,15.70
2022-10-20T02:05:49.030Z,15.60
2022-10-20T02:11:26.189Z,15.40
2022-10-20T02:17:08.779Z,15.40
2022-10-20T02:22:42.268Z,15.30
2022-10-20T02:25:34.579Z,15.40
2022-10-20T02:28:28.050Z,15.40
2022-10-20T02:31:20.754Z,15.30
2022-10-20T02:34:12.506Z,15.30
2022-10-20T02:37:04.048Z,15.30
2022-10-20T02:39:55.475Z,15.30
2022-10-20T02:42:47.104Z,15.20
2022-10-20T02:45:38.318Z,15.30
2022-10-20T02:48:29.686Z,15.30
2022-10-20T02:51:20.866Z,15.20
2022-10-20T02:56:51.309Z,15.20
2022-10-20T02:59:42.569Z,15.20
2022-10-20T03:02:34.064Z,15.10
2022-10-20T03:05:27.106Z,15.00
2022-10-20T03:08:18.525Z,15.00
2022-10-20T03:11:10.926Z,15.00
2022-10-20T03:16:40.361Z,15.00
2022-10-20T03:22:11.454Z,14.80
2022-10-20T03:25:02.663Z,14.80
2022-10-20T03:27:53.878Z,14.80
2022-10-20T03:30:46.540Z,14.80
2022-10-20T03:36:22.622Z,14.80
2022-10-20T03:39:14.079Z,15.00
2022-10-20T03:42:05.622Z,15.00
2022-10-20T03:47:36.508Z,15.00
2022-10-20T03:50:27.943Z,15.00
2022-10-20T03:53:19.455Z,15.10
2022-10-20T03:56:12.523Z,15.10
2022-10-20T04:01:55.268Z,15.30
2022-10-20T04:07:26.710Z,15.40
2022-10-20T04:10:19.390Z,15.30
2022-10-20T04:13:10.887Z,15.30
2022-10-20T04:18:41.356Z,15.40
2022-10-20T04:21:32.797Z,15.40
2022-10-20T04:27:03.847Z,15.30
2022-10-20T04:29:54.854Z,15.30
2022-10-20T04:32:46.347Z,15.40
2022-10-20T04:35:37.890Z,15.40
2022-10-20T04:38:31.015Z,15.40
2022-10-20T04:41:22.061Z,15.30
2022-10-20T04:44:13.127Z,15.30
2022-10-20T04:47:04.473Z,15.30
2022-10-20T04:52:34.595Z,15.30
2022-10-20T04:55:29.073Z,15.30
2022-10-20T04:58:20.327Z,15.30
2022-10-20T05:01:13.032Z,15.30
2022-10-20T05:04:04.446Z,15.40
2022-10-20T05:06:55.784Z,15.30
2022-10-20T05:09:49.812Z,15.30
2022-10-20T05:12:41.322Z,15.30
2022-10-20T05:15:34.818Z,15.40
2022-10-20T05:18:26.160Z,15.30
2022-10-20T05:21:19.517Z,15.30
2022-10-20T05:26:50.573Z,15.30
2022-10-20T05:32:20.518Z,15.30
2022-10-20T05:35:12.567Z,15.30
2022-10-20T05:38:04.294Z,15.30
2022-10-20T05:40:56.010Z,15.30
2022-10-20T05:46:42.596Z,15.30
2022-10-20T05:49:34.332Z,15.40
2022-10-20T05:52:25.883Z,15.40
2022-10-20T05:55:17.611Z,15.40
2022-10-20T06:00:51.442Z,15.40
2022-10-20T06:03:43.320Z,15.40
2022-10-20T06:06:34.852Z,15.40
2022-10-20T06:09:26.337Z,15.40
2022-10-20T06:12:17.920Z,15.40
2022-10-20T06:15:11.425Z,15.40
2022-10-20T06:18:03.075Z,15.40
2022-10-20T06:21:06.215Z,15.40
2022-10-20T06:26:38.750Z,15.40
2022-10-20T06:29:30.550Z,15.50
2022-10-20T06:32:21.950Z,15.50
2022-10-20T06:37:53.876Z,15.50
2022-10-20T06:43:27.819Z,15.50
2022-10-20T06:46:20.182Z,15.50
2022-10-20T06:49:13.062Z,15.50
2022-10-20T06:52:04.769Z,15.60
2022-10-20T06:57:34.462Z,15.70
2022-10-20T07:00:25.653Z,15.80
2022-10-20T07:03:16.871Z,15.80
2022-10-20T07:06:09.517Z,15.90
2022-10-20T07:11:38.709Z,15.90
2022-10-20T07:14:32.404Z,16.00
2022-10-20T07:17:22.284Z,16.00
2022-10-20T07:20:13.817Z,16.00
2022-10-20T07:23:04.762Z,16.10
2022-10-20T07:26:02.372Z,16.10
2022-10-20T07:28:55.958Z,16.10
2022-10-20T07:31:48.592Z,16.10
2022-10-20T07:34:39.659Z,16.20
2022-10-20T07:37:30.966Z,16.10
2022-10-20T07:40:22.289Z,16.10
2022-10-20T07:43:13.073Z,16.20
2022-10-20T07:46:04.570Z,16.20
2022-10-20T07:49:02.687Z,16.20
2022-10-20T07:51:48.592Z,16.40
2022-10-20T07:54:39.690Z,16.50
2022-10-20T07:57:30.628Z,16.50
2022-10-20T08:00:22.137Z,16.40
2022-10-20T08:03:13.610Z,16.40
2022-10-20T08:06:05.279Z,16.40
2022-10-20T08:11:36.108Z,16.40
2022-10-20T08:14:27.749Z,16.50
2022-10-20T08:17:19.029Z,16.50
2022-10-20T08:23:22.262Z,16.60
2022-10-20T08:26:14.920Z,16.60
2022-10-20T08:29:08.873Z,16.60
2022-10-20T08:32:00.013Z,16.70
2022-10-20T08:37:31.589Z,16.90
2022-10-20T08:40:25.577Z,17.00
2022-10-20T08:43:20.006Z,17.00
2022-10-20T08:48:53.548Z,17.10
2022-10-20T08:51:45.137Z,17.10
2022-10-20T08:54:37.111Z,17.10
2022-10-20T08:57:33.464Z,17.20
2022-10-20T09:00:27.119Z,17.30
2022-10-20T09:03:22.487Z,17.20
2022-10-20T09:06:17.166Z,17.30
2022-10-20T09:22:35.923Z,17.50
2022-10-20T09:25:27.631Z,17.50
2022-10-20T09:28:26.324Z,17.50
2022-10-20T09:31:26.924Z,17.50
2022-10-20T09:37:05.608Z,17.60
2022-10-20T09:39:59.736Z,17.80
2022-10-20T09:42:55.067Z,17.80
2022-10-20T09:48:36.855Z,17.80
2022-10-20T09:51:29.637Z,17.80
2022-10-20T09:57:06.785Z,17.90
2022-10-20T10:02:37.821Z,18.10
2022-10-20T10:08:10.585Z,18.10
2022-10-20T10:11:04.612Z,18.20
2022-10-20T10:16:45.723Z,18.50
2022-10-20T10:19:37.444Z,18.50
2022-10-20T10:22:29.195Z,18.50
2022-10-20T10:28:04.559Z,18.50
2022-10-20T10:31:10.686Z,18.50
2022-10-20T10:36:51.693Z,18.30
2022-10-20T10:39:43.781Z,18.30
2022-10-20T10:42:54.208Z,18.30
2022-10-20T10:45:49.242Z,18.40
2022-10-20T10:54:40.739Z,18.20
2022-10-20T10:57:36.613Z,18.20
2022-10-20T11:00:36.565Z,18.20
2022-10-20T11:03:47.465Z,18.20
2022-10-20T11:09:24.256Z,18.10
2022-10-20T11:12:27.904Z,18.10
2022-10-20T11:15:26.372Z,18.10
2022-10-20T11:18:22.220Z,18.10
2022-10-20T11:21:21.613Z,18.10
2022-10-20T11:24:21.523Z,18.10
2022-10-20T11:27:15.999Z,18.20
2022-10-20T11:30:16.748Z,18.20
2022-10-20T11:38:35.585Z,18.40
2022-10-20T11:44:10.116Z,18.50
2022-10-20T11:47:04.539Z,18.50
2022-10-20T11:56:21.389Z,18.60
2022-10-20T11:59:24.178Z,18.60
2022-10-20T12:02:39.682Z,18.60
2022-10-20T12:06:09.121Z,18.50
2022-10-20T12:09:06.977Z,18.40
2022-10-20T12:12:02.564Z,18.20
2022-10-20T12:14:57.294Z,18.20
2022-10-20T12:17:49.619Z,18.10
2022-10-20T12:20:56.434Z,18.10
2022-10-20T12:26:44.941Z,18.00
2022-10-20T12:30:28.873Z,17.90
2022-10-20T12:33:22.403Z,17.90
2022-10-20T12:36:47.002Z,17.80
2022-10-20T12:39:38.602Z,17.80
2022-10-20T12:42:34.691Z,17.80
2022-10-20T12:45:32.411Z,18.10
2022-10-20T12:48:25.771Z,18.20
2022-10-20T12:51:25.324Z,18.30
2022-10-20T12:54:24.809Z,18.40
2022-10-20T13:00:52.647Z,18.50
2022-10-20T13:03:53.257Z,18.50
2022-10-20T13:06:48.333Z,18.60
2022-10-20T13:10:00.417Z,18.60
2022-10-20T13:12:50.651Z,18.60
2022-10-20T13:15:47.447Z,18.60
2022-10-20T13:18:41.493Z,18.70
2022-10-20T13:21:34.957Z,18.90
2022-10-20T13:24:29.451Z,19.00
2022-10-20T13:27:23.056Z,19.10
2022-10-20T13:30:22.422Z,19.30
2022-10-20T13:33:38.869Z,19.40
2022-10-20T13:36:15.299Z,19.50
2022-10-20T13:39:09.828Z,19.70
2022-10-20T13:42:05.267Z,19.80
2022-10-20T13:45:02.232Z,20.00
2022-10-20T13:47:59.168Z,20.20
2022-10-20T13:50:53.256Z,20.40
2022-10-20T13:53:47.308Z,20.60
2022-10-20T13:56:41.549Z,20.80
2022-10-20T13:59:33.646Z,21.00
2022-10-20T14:02:28.385Z,21.20
2022-10-20T14:05:22.417Z,21.40
2022-10-20T14:08:18.889Z,21.50
2022-10-20T14:11:11.326Z,21.70
2022-10-20T14:14:04.160Z,21.70
2022-10-20T14:16:58.473Z,21.90
2022-10-20T14:19:50.097Z,22.00
2022-10-20T14:22:45.203Z,22.10
2022-10-20T14:25:37.065Z,22.10
2022-10-20T14:28:30.404Z,22.00
2022-10-20T14:31:24.790Z,22.00
2022-10-20T14:34:22.918Z,22.00
2022-10-20T14:37:16.598Z,22.00
2022-10-20T14:40:14.274Z,22.00
2022-10-20T14:43:09.098Z,22.10
2022-10-20T14:46:02.887Z,22.20
2022-10-20T14:48:54.181Z,22.40
2022-10-20T14:51:48.876Z,22.40
2022-10-20T14:54:40.859Z,22.50
2022-10-20T14:57:43.125Z,22.60
2022-10-20T15:00:38.796Z,22.60
2022-10-20T15:03:30.905Z,22.60
2022-10-20T15:06:27.919Z,22.60
2022-10-20T15:09:27.708Z,22.60
2022-10-20T15:12:24.601Z,22.60
2022-10-20T15:15:24.572Z,22.60
2022-10-20T15:18:20.988Z,22.60
2022-10-20T15:21:13.897Z,22.60
2022-10-20T15:24:28.656Z,22.60
2022-10-20T15:27:35.950Z,22.60
2022-10-20T15:30:30.391Z,22.70
2022-10-20T15:33:23.039Z,22.50
2022-10-20T15:36:17.247Z,22.40
2022-10-20T15:39:31.188Z,22.40
2022-10-20T15:42:46.386Z,22.40
2022-10-20T15:45:59.109Z,22.50
2022-10-20T15:48:50.839Z,22.40
2022-10-20T15:51:53.470Z,22.20
2022-10-20T15:54:46.777Z,21.90
2022-10-20T15:57:39.333Z,21.40
2022-10-20T16:00:32.357Z,21.10
2022-10-20T16:03:27.314Z,20.80
2022-10-20T16:06:22.917Z,20.60
2022-10-20T16:09:20.444Z,20.40
2022-10-20T16:12:24.488Z,20.30
2022-10-20T16:15:19.403Z,20.20
2022-10-20T16:18:13.354Z,20.20
2022-10-20T16:21:08.667Z,20.20
2022-10-20T16:24:01.586Z,20.00
2022-10-20T16:26:54.521Z,19.90
2022-10-20T16:29:49.831Z,19.80
2022-10-20T16:32:51.008Z,19.70
2022-10-20T16:35:45.817Z,19.50
2022-10-20T16:38:40.213Z,19.50
2022-10-20T16:41:31.688Z,19.40
2022-10-20T16:44:25.431Z,19.30
2022-10-20T16:47:17.601Z,19.10
2022-10-20T16:50:10.252Z,19.00
2022-10-20T16:53:04.065Z,19.00
2022-10-20T16:55:59.492Z,19.00
2022-10-20T16:58:52.160Z,18.90
2022-10-20T17:01:45.747Z,18.80
2022-10-20T17:04:39.191Z,18.80
2022-10-20T17:07:40.879Z,18.70
2022-10-20T17:10:40.388Z,18.70
2022-10-20T17:13:33.354Z,18.80
2022-10-20T17:16:30.139Z,18.70
2022-10-20T17:19:24.462Z,18.70
2022-10-20T17:22:16.691Z,18.70
2022-10-20T17:25:13.777Z,18.70
2022-10-20T17:28:08.052Z,18.60
2022-10-20T17:31:02.969Z,18.60
2022-10-20T17:33:56.522Z,18.50
2022-10-20T17:36:49.201Z,18.40
2022-10-20T17:39:43.724Z,18.40
2022-10-20T17:42:37.356Z,18.40
2022-10-20T17:45:37.444Z,18.40
2022-10-20T17:48:32.100Z,18.30
2022-10-20T17:51:27.764Z,18.30
2022-10-20T17:54:20.525Z,18.40
2022-10-20T17:57:18.580Z,18.30
2022-10-20T18:00:26.798Z,18.40
2022-10-20T18:03:12.804Z,18.30
2022-10-20T18:06:11.381Z,18.30
2022-10-20T18:09:38.776Z,18.40
2022-10-20T18:12:31.635Z,18.30
2022-10-20T18:15:24.057Z,18.30
2022-10-20T18:18:36.796Z,18.20
2022-10-20T18:21:29.358Z,18.30
2022-10-20T18:24:23.009Z,18.20
2022-10-20T18:27:16.119Z,18.10
2022-10-20T18:30:15.981Z,18.10
2022-10-20T18:33:16.578Z,18.10
2022-10-20T18:36:13.304Z,18.10
2022-10-20T18:39:08.207Z,18.10
2022-10-20T18:42:00.401Z,18.10
2022-10-20T18:44:51.772Z,18.00
2022-10-20T18:47:44.822Z,18.10
2022-10-20T18:50:36.153Z,18.20
2022-10-20T18:53:28.480Z,18.20
2022-10-20T18:56:20.954Z,18.30
2022-10-20T18:59:16.471Z,18.40
2022-10-20T19:02:08.097Z,18.50
2022-10-20T19:04:59.312Z,18.50
2022-10-20T19:07:50.663Z,18.60
2022-10-20T19:10:44.391Z,18.70
2022-10-20T19:13:36.366Z,18.70
2022-10-20T19:16:30.174Z,18.70
2022-10-20T19:19:22.951Z,18.60
2022-10-20T19:22:14.226Z,18.60
2022-10-20T19:25:06.432Z,18.50
2022-10-20T19:27:58.663Z,18.50
2022-10-20T19:30:50.037Z,18.50
2022-10-20T19:33:41.506Z,18.50
2022-10-20T19:36:33.199Z,18.40
2022-10-20T19:39:27.346Z,18.30
2022-10-20T19:42:19.034Z,18.30
2022-10-20T19:45:11.029Z,18.30
2022-10-20T19:48:02.343Z,18.30
2022-10-20T19:50:54.250Z,18.40
2022-10-20T19:53:46.271Z,18.40
2022-10-20T19:56:37.996Z,18.50
2022-10-20T19:59:29.374Z,18.50
2022-10-20T20:02:20.783Z,18.50
2022-10-20T20:05:12.508Z,18.50
2022-10-20T20:08:04.089Z,18.40
2022-10-20T20:10:57.593Z,18.40
2022-10-20T20:13:49.092Z,18.40
2022-10-20T20:16:41.600Z,18.40
2022-10-20T20:19:33.650Z,18.30
2022-10-20T20:22:24.886Z,18.30
2022-10-20T20:25:16.671Z,18.30
2022-10-20T20:28:08.536Z,18.30
2022-10-20T20:31:04.855Z,18.20
2022-10-20T20:33:57.556Z,18.20
2022-10-20T20:36:49.046Z,18.10
2022-10-20T20:39:40.657Z,18.10
2022-10-20T20:42:32.099Z,18.00
2022-10-20T20:45:23.480Z,18.00
2022-10-20T20:48:16.532Z,18.00
2022-10-20T20:51:10.149Z,17.80
2022-10-20T20:54:01.501Z,17.90
2022-10-20T20:56:52.626Z,17.90
2022-10-20T20:59:43.950Z,18.00
2022-10-20T21:02:35.752Z,18.00
2022-10-20T21:05:26.813Z,17.90
2022-10-20T21:08:18.796Z,18.00
2022-10-20T21:11:11.825Z,18.10
2022-10-20T21:14:03.035Z,18.30
2022-10-20T21:16:54.529Z,18.40
2022-10-20T21:19:47.473Z,18.30
2022-10-20T21:22:39.483Z,18.30
2022-10-20T21:25:30.962Z,18.30
2022-10-20T21:28:23.965Z,18.30
2022-10-20T21:31:18.309Z,18.40
2022-10-20T21:34:10.049Z,18.60
2022-10-20T21:39:47.100Z,18.90
2022-10-20T21:42:38.441Z,19.10
2022-10-20T21:45:30.285Z,19.50
2022-10-20T21:48:21.548Z,19.80
2022-10-20T21:51:15.016Z,20.30
2022-10-20T21:54:08.381Z,20.60
2022-10-20T21:57:00.212Z,20.80
2022-10-20T21:59:51.828Z,21.00
2022-10-20T22:02:43.109Z,21.20
2022-10-20T22:05:34.589Z,21.40
2022-10-20T22:08:25.983Z,21.60
2022-10-20T22:11:19.296Z,21.80
2022-10-20T22:14:10.898Z,22.00
2022-10-20T22:17:01.907Z,22.00
2022-10-20T22:19:54.029Z,22.00
2022-10-20T22:22:45.539Z,21.90
2022-10-20T22:25:39.676Z,22.20
2022-10-20T22:28:30.884Z,22.30
2022-10-20T22:31:23.053Z,22.30
2022-10-20T22:34:15.110Z,22.30
2022-10-20T22:37:06.477Z,22.40
2022-10-20T22:39:57.891Z,22.30
2022-10-20T22:42:49.209Z,22.30
2022-10-20T22:45:40.688Z,22.40
2022-10-20T22:48:32.210Z,22.30
2022-10-20T22:51:23.554Z,22.30
2022-10-20T22:54:14.943Z,22.20
2022-10-20T22:57:06.415Z,22.30
2022-10-20T22:59:57.683Z,22.30
2022-10-20T23:02:49.029Z,22.20
2022-10-20T23:05:40.627Z,22.20
2022-10-20T23:08:32.768Z,22.30
2022-10-20T23:11:25.017Z,22.20
2022-10-20T23:14:16.459Z,22.20
2022-10-20T23:17:07.735Z,22.10
2022-10-20T23:19:59.047Z,22.10
2022-10-20T23:22:50.476Z,22.20
2022-10-20T23:25:43.421Z,22.00
2022-10-20T23:31:20.093Z,21.70
2022-10-20T23:34:11.685Z,21.60
2022-10-20T23:39:42.630Z,21.70
2022-10-20T23:42:33.759Z,21.80
2022-10-20T23:45:24.899Z,21.80
2022-10-20T23:48:16.036Z,21.70
2022-10-20T23:51:08.403Z,21.60
2022-10-20T23:53:59.580Z,21.60
2022-10-20T23:59:29.598Z,21.60
